createdAt,value
2022-10-08T00:01:39.526Z,96407.75
2022-10-08T00:04:05.352Z,96409.03
2022-10-08T00:06:32.195Z,96398.97
2022-10-08T00:09:01.553Z,96404.66
2022-10-08T00:11:30.334Z,96401.88
2022-10-08T00:13:56.957Z,96401.81
2022-10-08T00:16:32.450Z,96404.31
2022-10-08T00:19:00.453Z,96404.03
2022-10-08T00:21:29.315Z,96401.09
2022-10-08T00:23:56.709Z,96397.06
2022-10-08T00:26:25.796Z,96398.06
2022-10-08T00:28:54.110Z,96393.25
2022-10-08T00:31:26.254Z,96392.47
2022-10-08T00:33:54.237Z,96394.75
2022-10-08T00:36:21.797Z,96393.72
2022-10-08T00:38:48.620Z,96393.97
2022-10-08T00:41:21.237Z,96385.53
2022-10-08T00:43:52.899Z,96382.56
2022-10-08T00:46:28.444Z,96385.41
2022-10-08T00:49:00.291Z,96393.19
2022-10-08T00:51:26.179Z,96390.22
2022-10-08T00:53:52.247Z,96384.66
2022-10-08T00:56:19.614Z,96385.31
2022-10-08T00:58:45.442Z,96378.25
2022-10-08T01:01:11.447Z,96381.44
2022-10-08T01:03:37.325Z,96382.25
2022-10-08T01:06:27.250Z,96391.53
2022-10-08T01:09:35.092Z,96386.50
2022-10-08T01:12:24.096Z,96383.22
2022-10-08T01:14:55.787Z,96382.78
2022-10-08T01:17:51.025Z,96380.44
2022-10-08T01:20:42.846Z,96374.59
2022-10-08T01:23:18.564Z,96382.34
2022-10-08T01:26:20.513Z,96378.97
2022-10-08T01:29:02.688Z,96381.88
2022-10-08T01:31:34.389Z,96388.06
2022-10-08T01:34:10.811Z,96379.72
2022-10-08T01:36:47.499Z,96378.34
2022-10-08T01:39:18.271Z,96380.41
2022-10-08T01:41:50.600Z,96373.53
2022-10-08T01:44:26.342Z,96375.06
2022-10-08T01:46:58.030Z,96376.34
2022-10-08T01:49:29.444Z,96380.88
2022-10-08T01:52:01.019Z,96383.06
2022-10-08T01:54:29.676Z,96369.09
2022-10-08T01:56:58.721Z,96376.50
2022-10-08T01:59:32.296Z,96373.16
2022-10-08T02:01:58.017Z,96377.88
2022-10-08T02:04:34.873Z,96371.91
2022-10-08T02:07:08.198Z,96381.31
2022-10-08T02:09:40.447Z,96370.94
2022-10-08T02:12:06.916Z,96375.41
2022-10-08T02:14:36.220Z,96379.75
2022-10-08T02:17:21.275Z,96367.19
2022-10-08T02:19:52.798Z,96375.66
2022-10-08T02:22:24.021Z,96363.59
2022-10-08T02:24:52.943Z,96371.63
2022-10-08T02:27:26.831Z,96371.25
2022-10-08T02:30:07.247Z,96370.78
2022-10-08T02:32:42.303Z,96371.72
2022-10-08T02:35:24.631Z,96364.50
2022-10-08T02:38:07.831Z,96361.44
2022-10-08T02:40:38.101Z,96358.81
2022-10-08T02:43:10.835Z,96364.22
2022-10-08T02:45:48.447Z,96360.44
2022-10-08T02:48:21.076Z,96359.38
2022-10-08T02:50:50.676Z,96353.56
2022-10-08T02:53:17.519Z,96349.97
2022-10-08T02:55:43.242Z,96354.66
2022-10-08T02:58:11.637Z,96358.16
2022-10-08T03:01:03.210Z,96357.72
2022-10-08T03:03:34.048Z,96359.78
2022-10-08T03:06:07.110Z,96362.56
2022-10-08T03:08:35.859Z,96353.41
2022-10-08T03:11:03.050Z,96357.22
2022-10-08T03:13:32.660Z,96353.97
2022-10-08T03:15:58.685Z,96356.91
2022-10-08T03:18:25.936Z,96355.78
2022-10-08T03:20:54.514Z,96350.13
2022-10-08T03:23:20.302Z,96356.19
2022-10-08T03:25:46.060Z,96350.38
2022-10-08T03:28:11.941Z,96355.06
2022-10-08T03:30:37.820Z,96343.03
2022-10-08T03:33:03.720Z,96356.88
2022-10-08T03:35:29.494Z,96349.94
2022-10-08T03:37:55.341Z,96344.94
2022-10-08T03:40:21.286Z,96346.44
2022-10-08T03:42:47.297Z,96349.94
2022-10-08T03:45:13.662Z,96352.28
2022-10-08T03:47:39.410Z,96350.66
2022-10-08T03:50:05.705Z,96347.56
2022-10-08T03:52:31.471Z,96355.63
2022-10-08T03:54:57.276Z,96352.59
2022-10-08T03:57:23.071Z,96350.28
2022-10-08T03:59:48.827Z,96346.56
2022-10-08T04:02:14.729Z,96346.72
2022-10-08T04:04:40.587Z,96351.56
2022-10-08T04:07:06.501Z,96358.09
2022-10-08T04:09:32.295Z,96360.13
2022-10-08T04:12:02.371Z,96356.50
2022-10-08T04:14:28.148Z,96358.50
2022-10-08T04:16:54.659Z,96365.97
2022-10-08T04:19:20.506Z,96360.75
2022-10-08T04:21:46.246Z,96360.31
2022-10-08T04:24:12.135Z,96371.19
2022-10-08T04:26:37.921Z,96373.16
2022-10-08T04:29:03.701Z,96381.22
2022-10-08T04:31:29.596Z,96381.53
2022-10-08T04:33:55.741Z,96382.34
2022-10-08T04:36:23.881Z,96381.94
2022-10-08T04:38:50.333Z,96382.97
2022-10-08T04:41:19.241Z,96383.41
2022-10-08T04:43:45.964Z,96389.44
2022-10-08T04:46:15.455Z,96398.59
2022-10-08T04:48:49.019Z,96398.03
2022-10-08T04:51:15.834Z,96397.06
2022-10-08T04:53:42.190Z,96390.72
2022-10-08T04:56:14.037Z,96390.94
2022-10-08T04:58:40.686Z,96398.28
2022-10-08T05:01:08.245Z,96400.34
2022-10-08T05:03:38.582Z,96401.22
2022-10-08T05:06:05.046Z,96405.75
2022-10-08T05:08:31.025Z,96401.47
2022-10-08T05:10:56.846Z,96396.75
2022-10-08T05:13:22.605Z,96401.56
2022-10-08T05:15:48.489Z,96404.50
2022-10-08T05:18:14.536Z,96415.31
2022-10-08T05:20:40.481Z,96402.00
2022-10-08T05:23:06.352Z,96418.06
2022-10-08T05:25:33.647Z,96404.56
2022-10-08T05:28:00.421Z,96411.28
2022-10-08T05:30:26.266Z,96418.31
2022-10-08T05:32:52.175Z,96416.25
2022-10-08T05:35:17.992Z,96422.69
2022-10-08T05:37:43.804Z,96422.41
2022-10-08T05:40:10.078Z,96431.53
2022-10-08T05:42:35.919Z,96434.66
2022-10-08T05:45:01.705Z,96435.31
2022-10-08T05:47:27.485Z,96429.38
2022-10-08T05:49:53.236Z,96436.69
2022-10-08T05:52:19.014Z,96437.31
2022-10-08T05:54:44.797Z,96436.22
2022-10-08T05:57:10.624Z,96426.72
2022-10-08T05:59:36.401Z,96425.81
2022-10-08T06:02:02.547Z,96423.34
2022-10-08T06:04:28.368Z,96425.22
2022-10-08T06:06:54.190Z,96425.50
2022-10-08T06:09:20.505Z,96436.38
2022-10-08T06:11:47.641Z,96448.81
2022-10-08T06:14:19.625Z,96446.47
2022-10-08T06:16:48.694Z,96457.31
2022-10-08T06:19:14.674Z,96461.91
2022-10-08T06:21:40.471Z,96451.94
2022-10-08T06:24:09.542Z,96473.09
2022-10-08T06:26:38.097Z,96473.22
2022-10-08T06:29:06.434Z,96469.38
2022-10-08T06:31:34.276Z,96473.59
2022-10-08T06:34:01.755Z,96486.50
2022-10-08T06:36:28.152Z,96500.81
2022-10-08T06:38:59.437Z,96490.69
2022-10-08T06:41:26.683Z,96487.59
2022-10-08T06:43:52.851Z,96492.75
2022-10-08T06:46:19.061Z,96496.50
2022-10-08T06:48:45.454Z,96500.53
2022-10-08T06:51:14.319Z,96514.75
2022-10-08T06:53:42.066Z,96502.69
2022-10-08T06:56:14.000Z,96501.44
2022-10-08T06:58:44.178Z,96503.00
2022-10-08T07:01:13.029Z,96506.06
2022-10-08T07:03:39.347Z,96516.69
2022-10-08T07:06:10.736Z,96513.03
2022-10-08T07:08:36.864Z,96520.19
2022-10-08T07:11:07.685Z,96528.34
2022-10-08T07:13:34.449Z,96522.47
2022-10-08T07:16:05.755Z,96532.19
2022-10-08T07:18:33.003Z,96536.25
2022-10-08T07:20:59.322Z,96536.41
2022-10-08T07:23:25.421Z,96549.44
2022-10-08T07:26:03.401Z,96554.06
2022-10-08T07:28:31.982Z,96557.56
2022-10-08T07:31:06.291Z,96556.22
2022-10-08T07:33:32.879Z,96564.94
2022-10-08T07:36:06.515Z,96565.97
2022-10-08T07:38:32.350Z,96571.41
2022-10-08T07:40:58.143Z,96570.53
2022-10-08T07:43:24.004Z,96571.09
2022-10-08T07:45:50.441Z,96567.06
2022-10-08T07:48:18.443Z,96571.91
2022-10-08T07:50:44.251Z,96586.81
2022-10-08T07:53:10.113Z,96585.47
2022-10-08T07:55:35.996Z,96585.66
2022-10-08T07:58:01.773Z,96596.56
2022-10-08T08:00:27.763Z,96593.94
2022-10-08T08:02:53.586Z,96605.75
2022-10-08T08:05:19.595Z,96611.53
2022-10-08T08:07:48.528Z,96612.91
2022-10-08T08:10:17.424Z,96614.91
2022-10-08T08:12:43.249Z,96605.72
2022-10-08T08:15:09.530Z,96611.31
2022-10-08T08:17:35.414Z,96615.91
2022-10-08T08:20:01.194Z,96623.50
2022-10-08T08:22:27.003Z,96634.84
2022-10-08T08:24:52.770Z,96626.41
2022-10-08T08:27:18.564Z,96630.72
2022-10-08T08:29:44.326Z,96629.50
2022-10-08T08:32:10.160Z,96644.38
2022-10-08T08:34:36.055Z,96645.22
2022-10-08T08:37:01.843Z,96651.91
2022-10-08T08:39:28.867Z,96657.53
2022-10-08T08:42:10.825Z,96647.16
2022-10-08T08:44:42.179Z,96659.06
2022-10-08T08:47:10.694Z,96666.06
2022-10-08T08:49:42.167Z,96663.13
2022-10-08T08:52:11.923Z,96668.09
2022-10-08T08:54:37.744Z,96666.78
2022-10-08T08:57:33.709Z,96680.53
2022-10-08T09:00:05.211Z,96670.50
2022-10-08T09:02:37.795Z,96681.09
2022-10-08T09:05:10.706Z,96679.47
2022-10-08T09:07:45.031Z,96693.19
2022-10-08T09:10:19.705Z,96691.69
2022-10-08T09:12:47.245Z,96696.00
2022-10-08T09:15:26.104Z,96687.84
2022-10-08T09:17:52.376Z,96690.81
2022-10-08T09:20:22.682Z,96695.13
2022-10-08T09:22:50.714Z,96703.03
2022-10-08T09:25:20.422Z,96699.69
2022-10-08T09:27:48.897Z,96701.34
2022-10-08T09:30:23.539Z,96699.75
2022-10-08T09:32:53.898Z,96706.31
2022-10-08T09:35:19.758Z,96704.31
2022-10-08T09:37:47.750Z,96709.91
2022-10-08T09:40:26.349Z,96694.84
2022-10-08T09:43:13.910Z,96723.16
2022-10-08T09:45:44.186Z,96708.81
2022-10-08T09:48:30.173Z,96718.19
2022-10-08T09:51:06.528Z,96711.69
2022-10-08T09:53:38.101Z,96722.22
2022-10-08T09:56:06.030Z,96718.88
2022-10-08T09:58:35.053Z,96733.94
2022-10-08T10:01:05.424Z,96730.44
2022-10-08T10:03:33.942Z,96734.38
2022-10-08T10:06:00.851Z,96735.72
2022-10-08T10:08:47.791Z,96735.97
2022-10-08T10:11:21.155Z,96732.16
2022-10-08T10:13:49.617Z,96735.09
2022-10-08T10:16:38.535Z,96738.94
2022-10-08T10:19:10.502Z,96748.75
2022-10-08T10:21:54.661Z,96740.88
2022-10-08T10:24:27.718Z,96746.28
2022-10-08T10:26:56.256Z,96746.91
2022-10-08T10:29:26.491Z,96753.91
2022-10-08T10:32:19.797Z,96754.00
2022-10-08T10:34:56.467Z,96755.84
2022-10-08T10:37:29.030Z,96752.16
2022-10-08T10:40:16.838Z,96762.78
2022-10-08T10:43:20.530Z,96762.16
2022-10-08T10:45:54.124Z,96756.13
2022-10-08T10:48:20.002Z,96757.78
2022-10-08T10:51:13.993Z,96770.78
2022-10-08T10:53:54.001Z,96769.66
2022-10-08T10:56:21.640Z,96758.38
2022-10-08T10:59:26.319Z,96776.06
2022-10-08T11:02:20.412Z,96772.59
2022-10-08T11:04:59.385Z,96772.47
2022-10-08T11:07:44.925Z,96761.34
2022-10-08T11:10:38.287Z,96756.19
2022-10-08T11:13:31.849Z,96772.88
2022-10-08T11:16:28.429Z,96762.41
2022-10-08T11:18:57.513Z,96760.50
2022-10-08T11:21:32.119Z,96763.97
2022-10-08T11:24:19.634Z,96767.44
2022-10-08T11:26:54.440Z,96763.63
2022-10-08T11:29:31.243Z,96767.47
2022-10-08T11:31:57.764Z,96769.75
2022-10-08T11:34:30.505Z,96773.66
2022-10-08T11:37:13.796Z,96763.47
2022-10-08T11:39:48.796Z,96771.50
2022-10-08T11:42:18.787Z,96769.53
2022-10-08T11:44:44.582Z,96771.31
2022-10-08T11:47:39.479Z,96765.69
2022-10-08T11:50:22.176Z,96767.53
2022-10-08T11:52:50.027Z,96771.56
2022-10-08T11:55:26.221Z,96762.06
2022-10-08T11:58:13.787Z,96766.66
2022-10-08T12:00:44.797Z,96773.03
2022-10-08T12:03:39.479Z,96769.44
2022-10-08T12:06:19.128Z,96784.75
2022-10-08T12:09:03.179Z,96776.78
2022-10-08T12:11:28.881Z,96774.97
2022-10-08T12:14:13.644Z,96780.63
2022-10-08T12:16:48.189Z,96790.22
2022-10-08T12:19:35.119Z,96792.09
2022-10-08T12:22:24.499Z,96790.50
2022-10-08T12:24:58.200Z,96799.50
2022-10-08T12:27:33.183Z,96788.91
2022-10-08T12:30:02.426Z,96780.56
2022-10-08T12:32:32.619Z,96788.94
2022-10-08T12:35:00.924Z,96787.72
2022-10-08T12:37:45.933Z,96784.34
2022-10-08T12:40:34.458Z,96791.09
2022-10-08T12:43:17.371Z,96782.31
2022-10-08T12:46:17.024Z,96789.53
2022-10-08T12:48:53.424Z,96791.28
2022-10-08T12:51:43.283Z,96793.97
2022-10-08T12:54:22.055Z,96796.59
2022-10-08T12:56:49.689Z,96807.19
2022-10-08T12:59:17.844Z,96815.81
2022-10-08T13:01:46.784Z,96804.81
2022-10-08T13:04:19.087Z,96806.00
2022-10-08T13:06:46.985Z,96803.53
2022-10-08T13:09:34.267Z,96810.97
2022-10-08T13:12:03.762Z,96807.25
2022-10-08T13:14:33.674Z,96801.81
2022-10-08T13:17:00.409Z,96807.09
2022-10-08T13:19:37.383Z,96802.94
2022-10-08T13:22:33.203Z,96805.00
2022-10-08T13:25:00.710Z,96807.94
2022-10-08T13:27:29.195Z,96806.34
2022-10-08T13:29:56.534Z,96813.19
2022-10-08T13:32:25.104Z,96819.50
2022-10-08T13:34:59.340Z,96813.47
2022-10-08T13:37:29.420Z,96821.38
2022-10-08T13:39:59.721Z,96812.94
2022-10-08T13:42:29.982Z,96823.00
2022-10-08T13:44:59.354Z,96827.66
2022-10-08T13:47:26.218Z,96837.53
2022-10-08T13:49:54.879Z,96840.34
2022-10-08T13:52:23.792Z,96838.94
2022-10-08T13:54:58.441Z,96832.16
2022-10-08T13:57:24.317Z,96822.06
2022-10-08T13:59:50.314Z,96821.75
2022-10-08T14:02:16.454Z,96820.31
2022-10-08T14:04:42.270Z,96825.38
2022-10-08T14:07:22.126Z,96833.38
2022-10-08T14:09:47.960Z,96827.78
2022-10-08T14:12:13.891Z,96824.72
2022-10-08T14:14:39.713Z,96826.03
2022-10-08T14:17:05.579Z,96827.84
2022-10-08T14:19:31.359Z,96826.19
2022-10-08T14:21:57.179Z,96829.19
2022-10-08T14:24:23.064Z,96828.69
2022-10-08T14:26:49.241Z,96827.16
2022-10-08T14:29:15.318Z,96825.19
2022-10-08T14:31:41.074Z,96827.97
2022-10-08T14:34:07.021Z,96835.19
2022-10-08T14:36:35.792Z,96829.94
2022-10-08T14:39:01.796Z,96834.09
2022-10-08T14:41:28.256Z,96838.56
2022-10-08T14:43:54.144Z,96839.13
2022-10-08T14:46:19.933Z,96836.34
2022-10-08T14:48:45.785Z,96840.75
2022-10-08T14:51:11.792Z,96847.03
2022-10-08T14:53:38.234Z,96841.41
2022-10-08T14:56:12.781Z,96848.13
2022-10-08T14:58:39.612Z,96844.16
2022-10-08T15:01:05.668Z,96854.75
2022-10-08T15:03:31.707Z,96852.56
2022-10-08T15:05:59.056Z,96852.72
2022-10-08T15:08:24.967Z,96846.13
2022-10-08T15:10:50.811Z,96844.03
2022-10-08T15:13:16.579Z,96849.50
2022-10-08T15:15:43.617Z,96848.31
2022-10-08T15:18:10.702Z,96857.06
2022-10-08T15:20:39.356Z,96850.97
2022-10-08T15:23:06.435Z,96854.13
2022-10-08T15:25:32.846Z,96853.84
2022-10-08T15:27:58.906Z,96861.63
2022-10-08T15:30:25.021Z,96857.19
2022-10-08T15:32:51.082Z,96860.06
2022-10-08T15:35:18.545Z,96859.88
2022-10-08T15:37:45.371Z,96863.34
2022-10-08T15:40:11.224Z,96857.59
2022-10-08T15:42:37.037Z,96857.44
2022-10-08T15:45:03.282Z,96851.56
2022-10-08T15:47:29.114Z,96849.50
2022-10-08T15:49:55.074Z,96851.72
2022-10-08T15:52:21.105Z,96867.06
2022-10-08T15:54:48.043Z,96858.69
2022-10-08T15:57:15.515Z,96858.44
2022-10-08T15:59:41.671Z,96861.91
2022-10-08T16:02:15.534Z,96869.56
2022-10-08T16:04:43.126Z,96873.06
2022-10-08T16:07:09.499Z,96874.78
2022-10-08T16:09:35.410Z,96881.31
2022-10-08T16:12:01.400Z,96880.63
2022-10-08T16:14:27.364Z,96883.38
2022-10-08T16:16:53.898Z,96891.91
2022-10-08T16:19:23.197Z,96887.28
2022-10-08T16:21:50.495Z,96891.44
2022-10-08T16:24:16.794Z,96896.84
2022-10-08T16:26:43.258Z,96899.47
2022-10-08T16:29:12.237Z,96888.34
2022-10-08T16:31:39.358Z,96903.88
2022-10-08T16:34:19.371Z,96906.84
2022-10-08T16:36:47.327Z,96905.47
2022-10-08T16:39:15.319Z,96917.44
2022-10-08T16:41:41.176Z,96924.56
2022-10-08T16:44:12.321Z,96928.91
2022-10-08T16:46:41.083Z,96939.97
2022-10-08T16:49:12.665Z,96937.75
2022-10-08T16:51:38.964Z,96941.91
2022-10-08T16:54:07.262Z,96950.88
2022-10-08T16:56:35.520Z,96950.88
2022-10-08T16:59:08.002Z,96954.28
2022-10-08T17:01:35.211Z,96954.84
2022-10-08T17:04:07.069Z,96961.88
2022-10-08T17:06:33.266Z,96962.88
2022-10-08T17:08:59.456Z,96967.25
2022-10-08T17:11:25.819Z,96972.06
2022-10-08T17:13:55.040Z,96970.47
2022-10-08T17:16:22.652Z,96977.22
2022-10-08T17:18:53.605Z,96980.25
2022-10-08T17:21:20.070Z,96983.22
2022-10-08T17:23:46.653Z,96975.19
2022-10-08T17:26:15.611Z,96974.81
2022-10-08T17:28:44.314Z,96981.66
2022-10-08T17:31:19.540Z,96985.91
2022-10-08T17:33:46.037Z,96998.78
2022-10-08T17:36:18.922Z,97002.81
2022-10-08T17:38:47.439Z,97003.75
2022-10-08T17:41:18.990Z,97013.97
2022-10-08T17:43:46.609Z,97008.56
2022-10-08T17:46:15.771Z,97013.97
2022-10-08T17:48:42.659Z,97015.78
2022-10-08T17:51:11.827Z,97021.53
2022-10-08T17:53:38.350Z,97017.03
2022-10-08T17:56:06.613Z,97025.03
2022-10-08T17:58:33.027Z,97029.06
2022-10-08T18:01:12.292Z,97035.25
2022-10-08T18:03:39.627Z,97038.88
2022-10-08T18:06:07.258Z,97034.16
2022-10-08T18:08:33.357Z,97037.31
2022-10-08T18:11:07.786Z,97037.31
2022-10-08T18:13:34.378Z,97038.00
2022-10-08T18:16:04.998Z,97042.13
2022-10-08T18:18:31.439Z,97043.28
2022-10-08T18:20:58.901Z,97052.38
2022-10-08T18:23:25.061Z,97047.91
2022-10-08T18:25:53.907Z,97059.53
2022-10-08T18:28:21.315Z,97057.50
2022-10-08T18:30:47.412Z,97060.34
2022-10-08T18:33:14.553Z,97069.06
2022-10-08T18:35:40.444Z,97066.66
2022-10-08T18:38:06.411Z,97074.38
2022-10-08T18:40:32.275Z,97082.69
2022-10-08T18:42:58.183Z,97081.19
2022-10-08T18:45:24.168Z,97087.97
2022-10-08T18:47:50.055Z,97084.63
2022-10-08T18:50:15.982Z,97079.72
2022-10-08T18:52:41.940Z,97088.81
2022-10-08T18:55:08.579Z,97088.38
2022-10-08T18:57:34.520Z,97083.56
2022-10-08T19:00:00.343Z,97083.47
2022-10-08T19:02:26.251Z,97095.22
2022-10-08T19:04:52.221Z,97089.13
2022-10-08T19:07:18.065Z,97096.66
2022-10-08T19:09:43.912Z,97094.66
2022-10-08T19:12:09.794Z,97099.63
2022-10-08T19:14:35.579Z,97101.84
2022-10-08T19:17:02.038Z,97100.81
2022-10-08T19:19:28.803Z,97105.81
2022-10-08T19:21:55.326Z,97109.03
2022-10-08T19:24:23.690Z,97111.22
2022-10-08T19:26:50.563Z,97115.91
2022-10-08T19:29:21.799Z,97121.16
2022-10-08T19:31:49.370Z,97113.63
2022-10-08T19:34:18.367Z,97120.16
2022-10-08T19:36:45.251Z,97117.53
2022-10-08T19:39:14.270Z,97123.38
2022-10-08T19:41:41.761Z,97125.63
2022-10-08T19:44:08.143Z,97127.84
2022-10-08T19:46:34.708Z,97129.88
2022-10-08T19:49:02.687Z,97134.31
2022-10-08T19:51:31.446Z,97137.34
2022-10-08T19:53:58.383Z,97130.44
2022-10-08T19:56:25.060Z,97135.53
2022-10-08T19:58:53.416Z,97139.34
2022-10-08T20:01:27.935Z,97143.81
2022-10-08T20:03:55.532Z,97138.97
2022-10-08T20:06:24.714Z,97149.63
2022-10-08T20:08:55.657Z,97142.56
2022-10-08T20:11:22.016Z,97144.66
2022-10-08T20:13:49.616Z,97151.03
2022-10-08T20:16:37.172Z,97152.34
2022-10-08T20:19:12.732Z,97155.16
2022-10-08T20:21:38.413Z,97160.63
2022-10-08T20:24:04.719Z,97163.09
2022-10-08T20:26:32.449Z,97163.31
2022-10-08T20:29:01.253Z,97166.13
2022-10-08T20:31:30.080Z,97164.91
2022-10-08T20:34:05.169Z,97165.31
2022-10-08T20:36:31.757Z,97167.94
2022-10-08T20:38:58.007Z,97175.22
2022-10-08T20:41:30.440Z,97171.00
2022-10-08T20:44:03.527Z,97175.25
2022-10-08T20:46:30.887Z,97174.59
2022-10-08T20:48:57.266Z,97176.22
2022-10-08T20:51:27.394Z,97174.81
2022-10-08T20:53:55.970Z,97187.38
2022-10-08T20:56:22.814Z,97181.50
2022-10-08T20:58:49.168Z,97175.22
2022-10-08T21:01:16.666Z,97184.53
2022-10-08T21:03:43.797Z,97171.56
2022-10-08T21:06:12.462Z,97171.56
2022-10-08T21:08:40.268Z,97174.63
2022-10-08T21:11:11.987Z,97184.72
2022-10-08T21:13:37.808Z,97179.66
2022-10-08T21:16:07.122Z,97182.91
2022-10-08T21:18:34.289Z,97179.88
2022-10-08T21:21:05.186Z,97187.34
2022-10-08T21:23:31.627Z,97181.72
2022-10-08T21:26:11.811Z,97181.28
2022-10-08T21:28:38.186Z,97182.88
2022-10-08T21:31:05.905Z,97177.84
2022-10-08T21:33:39.854Z,97178.66
2022-10-08T21:36:09.108Z,97181.69
2022-10-08T21:38:34.902Z,97178.88
2022-10-08T21:41:07.891Z,97178.06
2022-10-08T21:43:33.809Z,97186.34
2022-10-08T21:46:00.458Z,97183.50
2022-10-08T21:48:28.678Z,97185.91
2022-10-08T21:50:59.555Z,97185.69
2022-10-08T21:53:27.875Z,97187.16
2022-10-08T21:55:55.390Z,97183.28
2022-10-08T21:58:21.550Z,97187.72
2022-10-08T22:00:47.470Z,97183.50
2022-10-08T22:03:13.309Z,97186.69
2022-10-08T22:05:39.092Z,97181.44
2022-10-08T22:08:04.891Z,97184.06
2022-10-08T22:10:30.653Z,97182.63
2022-10-08T22:12:56.443Z,97178.78
2022-10-08T22:15:22.718Z,97181.56
2022-10-08T22:17:48.552Z,97192.56
2022-10-08T22:20:14.361Z,97185.88
2022-10-08T22:22:40.157Z,97184.66
2022-10-08T22:25:06.163Z,97177.38
2022-10-08T22:27:32.026Z,97183.63
2022-10-08T22:29:58.910Z,97180.22
2022-10-08T22:32:24.654Z,97187.28
2022-10-08T22:34:50.352Z,97177.75
2022-10-08T22:37:16.123Z,97183.53
2022-10-08T22:39:42.034Z,97188.66
2022-10-08T22:42:07.925Z,97179.22
2022-10-08T22:44:33.772Z,97171.72
2022-10-08T22:46:59.562Z,97175.88
2022-10-08T22:49:25.665Z,97172.53
2022-10-08T22:51:51.964Z,97163.84
2022-10-08T22:54:17.810Z,97171.09
2022-10-08T22:56:43.576Z,97172.63
2022-10-08T22:59:09.404Z,97172.91
2022-10-08T23:01:35.451Z,97175.66
2022-10-08T23:04:01.351Z,97176.50
2022-10-08T23:06:32.269Z,97174.91
2022-10-08T23:09:00.409Z,97174.31
2022-10-08T23:11:27.294Z,97172.13
2022-10-08T23:13:55.510Z,97168.28
2022-10-08T23:16:22.805Z,97164.03
2022-10-08T23:19:08.269Z,97162.63
2022-10-08T23:21:35.656Z,97161.41
2022-10-08T23:24:01.852Z,97171.91
2022-10-08T23:26:28.238Z,97170.19
2022-10-08T23:28:57.544Z,97166.75
2022-10-08T23:31:32.181Z,97162.53
2022-10-08T23:33:58.861Z,97165.47
2022-10-08T23:36:30.500Z,97166.06
2022-10-08T23:38:56.952Z,97163.78
2022-10-08T23:41:23.783Z,97167.66
2022-10-08T23:43:50.915Z,97164.66
2022-10-08T23:46:19.748Z,97159.72
2022-10-08T23:48:46.503Z,97162.72
2022-10-08T23:51:13.984Z,97161.53
2022-10-08T23:53:41.276Z,97166.22
2022-10-08T23:56:07.660Z,97159.75
2022-10-08T23:58:33.732Z,97157.66
